sensor_id;sensor_type;location;lat;lon;timestamp;temperature;humidity
8862;DHT22;4799;50.996;4.754;2022-09-25T00:00:49;12.60;99.90
8862;DHT22;4799;50.996;4.754;2022-09-25T00:03:16;12.60;99.90
8862;DHT22;4799;50.996;4.754;2022-09-25T00:05:43;12.60;99.90
8862;DHT22;4799;50.996;4.754;2022-09-25T00:08:11;12.60;99.90
8862;DHT22;4799;50.996;4.754;2022-09-25T00:10:48;12.50;99.90
8862;DHT22;4799;50.996;4.754;2022-09-25T00:13:19;12.50;99.90
8862;DHT22;4799;50.996;4.754;2022-09-25T00:15:53;12.50;99.90
8862;DHT22;4799;50.996;4.754;2022-09-25T00:18:20;12.50;99.90
8862;DHT22;4799;50.996;4.754;2022-09-25T00:21:07;12.40;99.90
8862;DHT22;4799;50.996;4.754;2022-09-25T00:23:34;12.30;99.90
8862;DHT22;4799;50.996;4.754;2022-09-25T00:26:02;12.30;99.90
8862;DHT22;4799;50.996;4.754;2022-09-25T00:28:30;12.30;99.90
8862;DHT22;4799;50.996;4.754;2022-09-25T00:30:57;12.30;99.90
8862;DHT22;4799;50.996;4.754;2022-09-25T00:33:22;12.20;99.90
8862;DHT22;4799;50.996;4.754;2022-09-25T00:35:48;12.20;99.90
8862;DHT22;4799;50.996;4.754;2022-09-25T00:38:14;12.20;99.90
8862;DHT22;4799;50.996;4.754;2022-09-25T00:40:40;12.10;99.90
8862;DHT22;4799;50.996;4.754;2022-09-25T00:43:39;12.20;99.90
8862;DHT22;4799;50.996;4.754;2022-09-25T00:49:19;12.20;99.90
8862;DHT22;4799;50.996;4.754;2022-09-25T00:54:41;12.10;99.90
8862;DHT22;4799;50.996;4.754;2022-09-25T00:57:12;12.10;99.90
8862;DHT22;4799;50.996;4.754;2022-09-25T00:59:43;12.00;99.90
8862;DHT22;4799;50.996;4.754;2022-09-25T01:02:16;12.00;99.90
8862;DHT22;4799;50.996;4.754;2022-09-25T01:04:44;12.00;99.90
8862;DHT22;4799;50.996;4.754;2022-09-25T01:07:12;12.00;99.90
8862;DHT22;4799;50.996;4.754;2022-09-25T01:09:39;11.90;99.90
8862;DHT22;4799;50.996;4.754;2022-09-25T01:12:05;11.90;99.90
8862;DHT22;4799;50.996;4.754;2022-09-25T01:14:32;11.90;99.90
8862;DHT22;4799;50.996;4.754;2022-09-25T01:30:53;11.80;99.90
8862;DHT22;4799;50.996;4.754;2022-09-25T01:33:27;11.80;99.90
8862;DHT22;4799;50.996;4.754;2022-09-25T01:36:09;11.70;99.90
8862;DHT22;4799;50.996;4.754;2022-09-25T01:43:59;11.60;99.90
8862;DHT22;4799;50.996;4.754;2022-09-25T01:46:29;11.50;99.90
8862;DHT22;4799;50.996;4.754;2022-09-25T01:49:05;11.50;99.90
8862;DHT22;4799;50.996;4.754;2022-09-25T01:51:44;11.40;99.90
8862;DHT22;4799;50.996;4.754;2022-09-25T01:54:15;11.40;99.90
8862;DHT22;4799;50.996;4.754;2022-09-25T01:56:53;11.30;99.90
8862;DHT22;4799;50.996;4.754;2022-09-25T02:02:13;11.10;99.90
8862;DHT22;4799;50.996;4.754;2022-09-25T02:04:56;11.10;99.90
8862;DHT22;4799;50.996;4.754;2022-09-25T02:07:32;11.00;99.90
8862;DHT22;4799;50.996;4.754;2022-09-25T02:10:07;11.00;99.90
8862;DHT22;4799;50.996;4.754;2022-09-25T02:12:39;10.90;99.90
8862;DHT22;4799;50.996;4.754;2022-09-25T02:15:16;10.90;99.90
8862;DHT22;4799;50.996;4.754;2022-09-25T02:18:04;10.80;99.90
8862;DHT22;4799;50.996;4.754;2022-09-25T02:20:57;10.80;99.90
8862;DHT22;4799;50.996;4.754;2022-09-25T02:23:41;10.70;99.90
8862;DHT22;4799;50.996;4.754;2022-09-25T02:26:12;10.60;99.90
8862;DHT22;4799;50.996;4.754;2022-09-25T02:28:40;10.60;99.90
8862;DHT22;4799;50.996;4.754;2022-09-25T02:31:09;10.60;99.90
8862;DHT22;4799;50.996;4.754;2022-09-25T02:33:35;10.60;99.90
8862;DHT22;4799;50.996;4.754;2022-09-25T02:36:03;10.50;99.90
8862;DHT22;4799;50.996;4.754;2022-09-25T02:38:29;10.50;99.90
8862;DHT22;4799;50.996;4.754;2022-09-25T02:51:43;10.30;99.90
8862;DHT22;4799;50.996;4.754;2022-09-25T02:54:31;10.30;99.90
8862;DHT22;4799;50.996;4.754;2022-09-25T02:57:08;10.20;99.90
8862;DHT22;4799;50.996;4.754;2022-09-25T02:59:43;10.10;99.90
8862;DHT22;4799;50.996;4.754;2022-09-25T03:02:13;10.10;99.90
8862;DHT22;4799;50.996;4.754;2022-09-25T03:04:41;10.10;99.90
8862;DHT22;4799;50.996;4.754;2022-09-25T03:07:11;10.10;99.90
8862;DHT22;4799;50.996;4.754;2022-09-25T03:09:39;10.10;99.90
8862;DHT22;4799;50.996;4.754;2022-09-25T03:12:07;10.00;99.90
8862;DHT22;4799;50.996;4.754;2022-09-25T03:14:33;10.00;99.90
8862;DHT22;4799;50.996;4.754;2022-09-25T03:17:02;10.00;99.90
8862;DHT22;4799;50.996;4.754;2022-09-25T03:19:30;10.00;99.90
8862;DHT22;4799;50.996;4.754;2022-09-25T03:21:55;9.90;99.90
8862;DHT22;4799;50.996;4.754;2022-09-25T03:24:22;9.90;99.90
8862;DHT22;4799;50.996;4.754;2022-09-25T03:26:47;9.90;99.90
8862;DHT22;4799;50.996;4.754;2022-09-25T03:29:14;9.80;99.90
8862;DHT22;4799;50.996;4.754;2022-09-25T03:31:42;9.70;99.90
8862;DHT22;4799;50.996;4.754;2022-09-25T03:34:08;9.70;99.90
8862;DHT22;4799;50.996;4.754;2022-09-25T03:36:35;9.60;99.90
8862;DHT22;4799;50.996;4.754;2022-09-25T03:39:02;9.60;99.90
8862;DHT22;4799;50.996;4.754;2022-09-25T03:41:30;9.60;99.90
8862;DHT22;4799;50.996;4.754;2022-09-25T03:43:56;9.50;99.90
8862;DHT22;4799;50.996;4.754;2022-09-25T03:46:27;9.50;99.90
8862;DHT22;4799;50.996;4.754;2022-09-25T03:48:54;9.40;99.90
8862;DHT22;4799;50.996;4.754;2022-09-25T03:51:21;9.40;99.90
8862;DHT22;4799;50.996;4.754;2022-09-25T03:53:48;9.40;99.90
8862;DHT22;4799;50.996;4.754;2022-09-25T03:56:15;9.40;99.90
8862;DHT22;4799;50.996;4.754;2022-09-25T03:58:42;9.30;99.90
8862;DHT22;4799;50.996;4.754;2022-09-25T04:01:14;9.30;99.90
8862;DHT22;4799;50.996;4.754;2022-09-25T04:03:40;9.30;99.90
8862;DHT22;4799;50.996;4.754;2022-09-25T04:06:10;9.30;99.90
8862;DHT22;4799;50.996;4.754;2022-09-25T04:08:36;9.30;99.90
8862;DHT22;4799;50.996;4.754;2022-09-25T04:11:03;9.30;99.90
8862;DHT22;4799;50.996;4.754;2022-09-25T04:13:31;9.30;99.90
8862;DHT22;4799;50.996;4.754;2022-09-25T04:15:59;9.20;99.90
8862;DHT22;4799;50.996;4.754;2022-09-25T04:18:26;9.20;99.90
8862;DHT22;4799;50.996;4.754;2022-09-25T04:21:04;9.10;99.90
8862;DHT22;4799;50.996;4.754;2022-09-25T04:23:30;9.10;99.90
8862;DHT22;4799;50.996;4.754;2022-09-25T04:25:57;9.00;99.90
8862;DHT22;4799;50.996;4.754;2022-09-25T04:28:23;9.00;99.90
8862;DHT22;4799;50.996;4.754;2022-09-25T04:30:49;9.00;99.90
8862;DHT22;4799;50.996;4.754;2022-09-25T04:33:15;8.90;99.90
8862;DHT22;4799;50.996;4.754;2022-09-25T04:36:00;8.90;99.90
8862;DHT22;4799;50.996;4.754;2022-09-25T04:38:26;8.90;99.90
8862;DHT22;4799;50.996;4.754;2022-09-25T04:40:52;8.90;99.90
8862;DHT22;4799;50.996;4.754;2022-09-25T04:43:18;8.90;99.90
8862;DHT22;4799;50.996;4.754;2022-09-25T04:45:44;8.80;99.90
8862;DHT22;4799;50.996;4.754;2022-09-25T04:48:11;8.80;99.90
8862;DHT22;4799;50.996;4.754;2022-09-25T04:50:38;8.80;99.90
8862;DHT22;4799;50.996;4.754;2022-09-25T04:53:04;8.80;99.90
8862;DHT22;4799;50.996;4.754;2022-09-25T04:55:30;8.70;99.90
8862;DHT22;4799;50.996;4.754;2022-09-25T04:57:57;8.70;99.90
8862;DHT22;4799;50.996;4.754;2022-09-25T05:00:26;8.70;99.90
8862;DHT22;4799;50.996;4.754;2022-09-25T05:02:53;8.70;99.90
8862;DHT22;4799;50.996;4.754;2022-09-25T05:05:19;8.60;99.90
8862;DHT22;4799;50.996;4.754;2022-09-25T05:07:52;8.60;99.90
8862;DHT22;4799;50.996;4.754;2022-09-25T05:10:18;8.60;99.90
8862;DHT22;4799;50.996;4.754;2022-09-25T05:12:45;8.60;99.90
8862;DHT22;4799;50.996;4.754;2022-09-25T05:15:12;8.60;99.90
8862;DHT22;4799;50.996;4.754;2022-09-25T05:17:37;8.50;99.90
8862;DHT22;4799;50.996;4.754;2022-09-25T05:20:03;8.50;99.90
8862;DHT22;4799;50.996;4.754;2022-09-25T05:22:29;8.50;99.90
8862;DHT22;4799;50.996;4.754;2022-09-25T05:24:55;8.50;99.90
8862;DHT22;4799;50.996;4.754;2022-09-25T05:27:21;8.40;99.90
8862;DHT22;4799;50.996;4.754;2022-09-25T05:29:49;8.40;99.90
8862;DHT22;4799;50.996;4.754;2022-09-25T05:32:15;8.40;99.90
8862;DHT22;4799;50.996;4.754;2022-09-25T05:34:41;8.40;99.90
8862;DHT22;4799;50.996;4.754;2022-09-25T05:37:07;8.40;99.90
8862;DHT22;4799;50.996;4.754;2022-09-25T05:39:33;8.30;99.90
8862;DHT22;4799;50.996;4.754;2022-09-25T05:41:58;8.30;99.90
8862;DHT22;4799;50.996;4.754;2022-09-25T05:44:24;8.30;99.90
8862;DHT22;4799;50.996;4.754;2022-09-25T05:46:53;8.30;99.90
8862;DHT22;4799;50.996;4.754;2022-09-25T05:49:21;8.30;99.90
8862;DHT22;4799;50.996;4.754;2022-09-25T05:51:49;8.30;99.90
8862;DHT22;4799;50.996;4.754;2022-09-25T05:54:14;8.20;99.90
8862;DHT22;4799;50.996;4.754;2022-09-25T05:56:40;8.20;99.90
8862;DHT22;4799;50.996;4.754;2022-09-25T05:59:06;8.20;99.90
8862;DHT22;4799;50.996;4.754;2022-09-25T06:01:32;8.20;99.90
8862;DHT22;4799;50.996;4.754;2022-09-25T06:03:57;8.10;99.90
8862;DHT22;4799;50.996;4.754;2022-09-25T06:06:23;8.10;99.90
8862;DHT22;4799;50.996;4.754;2022-09-25T06:08:49;8.10;99.90
8862;DHT22;4799;50.996;4.754;2022-09-25T06:11:14;8.10;99.90
8862;DHT22;4799;50.996;4.754;2022-09-25T06:13:40;8.10;99.90
8862;DHT22;4799;50.996;4.754;2022-09-25T06:16:14;8.10;99.90
8862;DHT22;4799;50.996;4.754;2022-09-25T06:18:47;8.10;99.90
8862;DHT22;4799;50.996;4.754;2022-09-25T06:21:13;8.10;99.90
8862;DHT22;4799;50.996;4.754;2022-09-25T06:23:40;8.10;99.90
8862;DHT22;4799;50.996;4.754;2022-09-25T06:26:07;8.10;99.90
8862;DHT22;4799;50.996;4.754;2022-09-25T06:28:34;8.20;99.90
8862;DHT22;4799;50.996;4.754;2022-09-25T06:31:01;8.20;99.90
8862;DHT22;4799;50.996;4.754;2022-09-25T06:33:28;8.20;99.90
8862;DHT22;4799;50.996;4.754;2022-09-25T06:35:54;8.30;99.90
8862;DHT22;4799;50.996;4.754;2022-09-25T06:38:19;8.30;99.90
8862;DHT22;4799;50.996;4.754;2022-09-25T06:40:45;8.40;99.90
8862;DHT22;4799;50.996;4.754;2022-09-25T06:43:13;8.40;99.90
8862;DHT22;4799;50.996;4.754;2022-09-25T06:45:40;8.50;99.90
8862;DHT22;4799;50.996;4.754;2022-09-25T06:48:12;8.60;99.90
8862;DHT22;4799;50.996;4.754;2022-09-25T06:50:45;8.60;99.90
8862;DHT22;4799;50.996;4.754;2022-09-25T06:53:12;8.70;99.90
8862;DHT22;4799;50.996;4.754;2022-09-25T06:55:38;8.80;99.90
8862;DHT22;4799;50.996;4.754;2022-09-25T06:58:05;8.90;99.90
8862;DHT22;4799;50.996;4.754;2022-09-25T07:00:32;8.90;99.90
8862;DHT22;4799;50.996;4.754;2022-09-25T07:02:59;9.00;99.90
8862;DHT22;4799;50.996;4.754;2022-09-25T07:05:44;9.10;99.90
8862;DHT22;4799;50.996;4.754;2022-09-25T07:08:15;9.20;99.90
8862;DHT22;4799;50.996;4.754;2022-09-25T07:10:48;9.30;99.90
8862;DHT22;4799;50.996;4.754;2022-09-25T07:13:19;9.40;99.90
8862;DHT22;4799;50.996;4.754;2022-09-25T07:15:55;9.50;99.90
8862;DHT22;4799;50.996;4.754;2022-09-25T07:18:22;9.60;99.90
8862;DHT22;4799;50.996;4.754;2022-09-25T07:20:49;9.70;99.90
8862;DHT22;4799;50.996;4.754;2022-09-25T07:23:16;9.80;99.90
8862;DHT22;4799;50.996;4.754;2022-09-25T07:25:43;9.80;99.90
8862;DHT22;4799;50.996;4.754;2022-09-25T07:28:10;9.90;99.90
8862;DHT22;4799;50.996;4.754;2022-09-25T07:30:42;10.00;99.90
8862;DHT22;4799;50.996;4.754;2022-09-25T07:33:08;10.10;99.90
8862;DHT22;4799;50.996;4.754;2022-09-25T07:35:35;10.20;99.90
8862;DHT22;4799;50.996;4.754;2022-09-25T07:38:01;10.20;99.90
8862;DHT22;4799;50.996;4.754;2022-09-25T07:40:27;10.30;99.90
8862;DHT22;4799;50.996;4.754;2022-09-25T07:43:01;10.40;99.90
8862;DHT22;4799;50.996;4.754;2022-09-25T07:45:27;10.40;99.90
8862;DHT22;4799;50.996;4.754;2022-09-25T07:48:00;10.60;99.90
8862;DHT22;4799;50.996;4.754;2022-09-25T07:50:27;10.60;99.90
8862;DHT22;4799;50.996;4.754;2022-09-25T07:52:53;10.70;99.90
8862;DHT22;4799;50.996;4.754;2022-09-25T07:55:19;10.80;99.90
8862;DHT22;4799;50.996;4.754;2022-09-25T07:57:46;10.90;99.90
8862;DHT22;4799;50.996;4.754;2022-09-25T08:00:13;10.90;99.90
8862;DHT22;4799;50.996;4.754;2022-09-25T08:02:39;11.00;99.90
8862;DHT22;4799;50.996;4.754;2022-09-25T08:05:05;11.10;99.90
8862;DHT22;4799;50.996;4.754;2022-09-25T08:07:31;11.20;99.90
8862;DHT22;4799;50.996;4.754;2022-09-25T08:09:57;11.20;99.90
8862;DHT22;4799;50.996;4.754;2022-09-25T08:12:23;11.30;99.90
8862;DHT22;4799;50.996;4.754;2022-09-25T08:14:52;11.40;99.90
8862;DHT22;4799;50.996;4.754;2022-09-25T08:17:18;11.50;99.90
8862;DHT22;4799;50.996;4.754;2022-09-25T08:19:45;11.60;99.90
8862;DHT22;4799;50.996;4.754;2022-09-25T08:22:11;11.70;99.90
8862;DHT22;4799;50.996;4.754;2022-09-25T08:24:36;11.70;99.90
8862;DHT22;4799;50.996;4.754;2022-09-25T08:27:03;11.80;99.90
8862;DHT22;4799;50.996;4.754;2022-09-25T08:29:29;11.90;99.90
8862;DHT22;4799;50.996;4.754;2022-09-25T08:31:56;12.00;99.90
8862;DHT22;4799;50.996;4.754;2022-09-25T08:34:22;12.10;99.90
8862;DHT22;4799;50.996;4.754;2022-09-25T08:36:48;12.10;99.90
8862;DHT22;4799;50.996;4.754;2022-09-25T08:39:17;12.20;99.90
8862;DHT22;4799;50.996;4.754;2022-09-25T08:41:47;12.20;99.90
8862;DHT22;4799;50.996;4.754;2022-09-25T08:47:20;12.40;99.90
8862;DHT22;4799;50.996;4.754;2022-09-25T08:50:20;12.40;99.90
8862;DHT22;4799;50.996;4.754;2022-09-25T08:53:33;12.50;99.90
8862;DHT22;4799;50.996;4.754;2022-09-25T08:55:37;12.60;99.90
8862;DHT22;4799;50.996;4.754;2022-09-25T08:58:31;12.70;99.90
8862;DHT22;4799;50.996;4.754;2022-09-25T09:01:01;12.70;99.90
8862;DHT22;4799;50.996;4.754;2022-09-25T09:03:30;12.80;99.90
8862;DHT22;4799;50.996;4.754;2022-09-25T09:06:11;12.90;99.90
8862;DHT22;4799;50.996;4.754;2022-09-25T09:08:38;12.90;99.90
8862;DHT22;4799;50.996;4.754;2022-09-25T09:11:17;13.00;99.90
8862;DHT22;4799;50.996;4.754;2022-09-25T09:13:57;13.10;99.90
8862;DHT22;4799;50.996;4.754;2022-09-25T09:19:12;13.20;99.90
8862;DHT22;4799;50.996;4.754;2022-09-25T09:21:50;13.20;99.90
8862;DHT22;4799;50.996;4.754;2022-09-25T09:24:25;13.30;99.90
8862;DHT22;4799;50.996;4.754;2022-09-25T09:44:16;13.70;99.90
8862;DHT22;4799;50.996;4.754;2022-09-25T09:49:46;13.80;99.90
8862;DHT22;4799;50.996;4.754;2022-09-25T09:52:32;13.80;99.90
8862;DHT22;4799;50.996;4.754;2022-09-25T09:57:47;14.00;99.90
8862;DHT22;4799;50.996;4.754;2022-09-25T10:00:18;14.00;99.90
8862;DHT22;4799;50.996;4.754;2022-09-25T10:03:04;14.00;99.90
8862;DHT22;4799;50.996;4.754;2022-09-25T10:05:49;14.10;99.90
8862;DHT22;4799;50.996;4.754;2022-09-25T10:08:17;14.20;99.90
8862;DHT22;4799;50.996;4.754;2022-09-25T10:10:46;14.30;99.90
8862;DHT22;4799;50.996;4.754;2022-09-25T10:13:25;14.40;99.90
8862;DHT22;4799;50.996;4.754;2022-09-25T10:16:17;14.70;99.90
8862;DHT22;4799;50.996;4.754;2022-09-25T10:21:23;15.10;99.90
8862;DHT22;4799;50.996;4.754;2022-09-25T10:23:55;15.30;99.90
8862;DHT22;4799;50.996;4.754;2022-09-25T10:26:39;15.60;99.90
8862;DHT22;4799;50.996;4.754;2022-09-25T10:29:26;15.80;99.90
8862;DHT22;4799;50.996;4.754;2022-09-25T10:31:58;16.00;99.90
8862;DHT22;4799;50.996;4.754;2022-09-25T10:34:26;16.20;99.90
8862;DHT22;4799;50.996;4.754;2022-09-25T10:36:54;16.20;99.90
8862;DHT22;4799;50.996;4.754;2022-09-25T10:39:33;16.30;99.90
8862;DHT22;4799;50.996;4.754;2022-09-25T10:42:01;16.30;99.90
8862;DHT22;4799;50.996;4.754;2022-09-25T10:44:31;16.30;99.90
8862;DHT22;4799;50.996;4.754;2022-09-25T10:50:23;16.20;99.90
8862;DHT22;4799;50.996;4.754;2022-09-25T10:52:58;16.30;99.90
8862;DHT22;4799;50.996;4.754;2022-09-25T10:55:27;16.30;99.90
8862;DHT22;4799;50.996;4.754;2022-09-25T10:57:58;16.40;99.90
8862;DHT22;4799;50.996;4.754;2022-09-25T11:00:28;16.40;99.90
8862;DHT22;4799;50.996;4.754;2022-09-25T11:03:00;16.50;99.90
8862;DHT22;4799;50.996;4.754;2022-09-25T11:05:32;16.50;99.90
8862;DHT22;4799;50.996;4.754;2022-09-25T11:08:04;16.70;99.90
8862;DHT22;4799;50.996;4.754;2022-09-25T11:10:34;16.80;99.90
8862;DHT22;4799;50.996;4.754;2022-09-25T11:13:06;16.90;99.90
8862;DHT22;4799;50.996;4.754;2022-09-25T11:15:33;17.00;99.90
8862;DHT22;4799;50.996;4.754;2022-09-25T11:18:04;16.90;99.90
8862;DHT22;4799;50.996;4.754;2022-09-25T11:20:31;17.00;99.90
8862;DHT22;4799;50.996;4.754;2022-09-25T11:39:37;17.90;99.90
8862;DHT22;4799;50.996;4.754;2022-09-25T11:42:42;18.10;99.90
8862;DHT22;4799;50.996;4.754;2022-09-25T11:45:31;18.20;99.90
8862;DHT22;4799;50.996;4.754;2022-09-25T11:48:43;18.30;99.90
8862;DHT22;4799;50.996;4.754;2022-09-25T11:51:30;18.20;99.90
8862;DHT22;4799;50.996;4.754;2022-09-25T11:57:15;18.20;99.90
8862;DHT22;4799;50.996;4.754;2022-09-25T12:11:09;18.60;99.90
8862;DHT22;4799;50.996;4.754;2022-09-25T12:16:17;18.70;99.90
8862;DHT22;4799;50.996;4.754;2022-09-25T12:24:39;18.30;97.70
8862;DHT22;4799;50.996;4.754;2022-09-25T12:33:01;17.80;98.40
8862;DHT22;4799;50.996;4.754;2022-09-25T12:38:55;17.50;98.90
8862;DHT22;4799;50.996;4.754;2022-09-25T12:41:40;17.30;99.90
8862;DHT22;4799;50.996;4.754;2022-09-25T12:47:08;17.20;99.90
8862;DHT22;4799;50.996;4.754;2022-09-25T12:49:42;17.30;99.70
8862;DHT22;4799;50.996;4.754;2022-09-25T12:52:34;17.40;99.30
8862;DHT22;4799;50.996;4.754;2022-09-25T13:00:16;17.70;97.10
8862;DHT22;4799;50.996;4.754;2022-09-25T13:05:32;17.90;96.30
8862;DHT22;4799;50.996;4.754;2022-09-25T13:08:28;18.00;96.80
8862;DHT22;4799;50.996;4.754;2022-09-25T13:11:18;18.20;95.80
8862;DHT22;4799;50.996;4.754;2022-09-25T13:13:50;18.40;95.50
8862;DHT22;4799;50.996;4.754;2022-09-25T13:16:18;18.50;96.60
8862;DHT22;4799;50.996;4.754;2022-09-25T13:21:35;18.30;96.50
8862;DHT22;4799;50.996;4.754;2022-09-25T13:24:05;18.20;96.40
8862;DHT22;4799;50.996;4.754;2022-09-25T13:26:47;18.20;96.40
8862;DHT22;4799;50.996;4.754;2022-09-25T13:29:35;18.20;96.30
8862;DHT22;4799;50.996;4.754;2022-09-25T13:32:20;18.20;96.60
8862;DHT22;4799;50.996;4.754;2022-09-25T13:34:52;18.30;96.80
8862;DHT22;4799;50.996;4.754;2022-09-25T13:37:26;18.30;96.90
8862;DHT22;4799;50.996;4.754;2022-09-25T13:39:53;18.50;97.20
8862;DHT22;4799;50.996;4.754;2022-09-25T13:42:42;18.70;96.80
8862;DHT22;4799;50.996;4.754;2022-09-25T13:48:08;18.90;92.70
8862;DHT22;4799;50.996;4.754;2022-09-25T13:50:37;19.00;93.40
8862;DHT22;4799;50.996;4.754;2022-09-25T13:58:21;18.90;92.00
8862;DHT22;4799;50.996;4.754;2022-09-25T14:03:42;18.70;93.10
8862;DHT22;4799;50.996;4.754;2022-09-25T14:06:30;18.60;92.00
8862;DHT22;4799;50.996;4.754;2022-09-25T14:09:05;18.40;88.50
8862;DHT22;4799;50.996;4.754;2022-09-25T14:11:33;18.40;90.00
8862;DHT22;4799;50.996;4.754;2022-09-25T14:14:06;18.30;91.20
8862;DHT22;4799;50.996;4.754;2022-09-25T14:16:34;18.30;90.60
8862;DHT22;4799;50.996;4.754;2022-09-25T14:19:03;18.20;91.80
8862;DHT22;4799;50.996;4.754;2022-09-25T14:21:30;18.20;91.70
8862;DHT22;4799;50.996;4.754;2022-09-25T14:26:45;18.30;90.30
8862;DHT22;4799;50.996;4.754;2022-09-25T14:29:22;18.30;90.50
8862;DHT22;4799;50.996;4.754;2022-09-25T14:32:19;18.40;90.00
8862;DHT22;4799;50.996;4.754;2022-09-25T14:46:13;19.30;89.20
8862;DHT22;4799;50.996;4.754;2022-09-25T14:48:52;19.40;89.40
8862;DHT22;4799;50.996;4.754;2022-09-25T14:51:25;19.50;89.10
8862;DHT22;4799;50.996;4.754;2022-09-25T14:54:03;19.60;89.60
8862;DHT22;4799;50.996;4.754;2022-09-25T14:56:30;19.60;89.00
8862;DHT22;4799;50.996;4.754;2022-09-25T14:59:11;19.70;89.60
8862;DHT22;4799;50.996;4.754;2022-09-25T15:01:47;19.70;90.00
8862;DHT22;4799;50.996;4.754;2022-09-25T15:04:32;19.60;89.20
8862;DHT22;4799;50.996;4.754;2022-09-25T15:07:02;19.60;90.60
8862;DHT22;4799;50.996;4.754;2022-09-25T15:09:35;19.40;90.50
8862;DHT22;4799;50.996;4.754;2022-09-25T15:12:17;19.40;91.20
8862;DHT22;4799;50.996;4.754;2022-09-25T15:15:22;19.20;91.10
8862;DHT22;4799;50.996;4.754;2022-09-25T15:17:56;19.10;90.70
8862;DHT22;4799;50.996;4.754;2022-09-25T15:20:32;18.90;87.80
8862;DHT22;4799;50.996;4.754;2022-09-25T15:23:07;18.80;87.50
8862;DHT22;4799;50.996;4.754;2022-09-25T15:25:41;18.70;89.20
8862;DHT22;4799;50.996;4.754;2022-09-25T15:28:13;18.50;87.90
8862;DHT22;4799;50.996;4.754;2022-09-25T15:30:39;18.40;87.70
8862;DHT22;4799;50.996;4.754;2022-09-25T15:33:29;18.30;90.00
8862;DHT22;4799;50.996;4.754;2022-09-25T15:36:00;18.20;89.70
8862;DHT22;4799;50.996;4.754;2022-09-25T15:38:31;18.10;90.40
8862;DHT22;4799;50.996;4.754;2022-09-25T15:40:57;18.00;90.60
8862;DHT22;4799;50.996;4.754;2022-09-25T15:43:23;17.90;91.30
8862;DHT22;4799;50.996;4.754;2022-09-25T15:48:39;17.80;92.40
8862;DHT22;4799;50.996;4.754;2022-09-25T15:51:38;17.70;93.30
8862;DHT22;4799;50.996;4.754;2022-09-25T15:54:31;17.70;94.00
8862;DHT22;4799;50.996;4.754;2022-09-25T15:57:00;17.60;94.60
8862;DHT22;4799;50.996;4.754;2022-09-25T15:59:33;17.60;95.30
8862;DHT22;4799;50.996;4.754;2022-09-25T16:02:15;17.60;95.60
8862;DHT22;4799;50.996;4.754;2022-09-25T16:05:01;17.60;95.90
8862;DHT22;4799;50.996;4.754;2022-09-25T16:07:32;17.60;96.20
8862;DHT22;4799;50.996;4.754;2022-09-25T16:10:09;17.70;96.50
8862;DHT22;4799;50.996;4.754;2022-09-25T16:12:49;17.70;96.10
8862;DHT22;4799;50.996;4.754;2022-09-25T16:17:55;17.70;96.70
8862;DHT22;4799;50.996;4.754;2022-09-25T16:20:31;17.70;97.00
8862;DHT22;4799;50.996;4.754;2022-09-25T16:23:00;17.70;97.40
8862;DHT22;4799;50.996;4.754;2022-09-25T16:28:05;17.60;98.00
8862;DHT22;4799;50.996;4.754;2022-09-25T16:30:32;17.50;98.50
8862;DHT22;4799;50.996;4.754;2022-09-25T16:33:21;17.50;99.00
8862;DHT22;4799;50.996;4.754;2022-09-25T16:35:48;17.50;99.90
8862;DHT22;4799;50.996;4.754;2022-09-25T16:38:35;17.40;99.90
8862;DHT22;4799;50.996;4.754;2022-09-25T16:41:22;17.30;99.90
8862;DHT22;4799;50.996;4.754;2022-09-25T16:46:41;17.20;99.90
8862;DHT22;4799;50.996;4.754;2022-09-25T16:49:07;17.00;99.90
8862;DHT22;4799;50.996;4.754;2022-09-25T16:51:35;16.90;99.90
8862;DHT22;4799;50.996;4.754;2022-09-25T16:54:01;16.90;99.90
8862;DHT22;4799;50.996;4.754;2022-09-25T16:56:29;16.90;99.90
8862;DHT22;4799;50.996;4.754;2022-09-25T16:58:56;16.80;99.90
8862;DHT22;4799;50.996;4.754;2022-09-25T17:01:24;16.80;99.90
8862;DHT22;4799;50.996;4.754;2022-09-25T17:03:51;16.70;99.90
8862;DHT22;4799;50.996;4.754;2022-09-25T17:06:22;16.70;99.90
8862;DHT22;4799;50.996;4.754;2022-09-25T17:08:51;16.60;99.90
8862;DHT22;4799;50.996;4.754;2022-09-25T17:11:18;16.50;99.90
8862;DHT22;4799;50.996;4.754;2022-09-25T17:13:46;16.40;99.90
8862;DHT22;4799;50.996;4.754;2022-09-25T17:16:12;16.30;99.90
8862;DHT22;4799;50.996;4.754;2022-09-25T17:18:38;16.20;99.90
8862;DHT22;4799;50.996;4.754;2022-09-25T17:21:10;16.10;99.90
8862;DHT22;4799;50.996;4.754;2022-09-25T17:23:37;16.10;99.90
8862;DHT22;4799;50.996;4.754;2022-09-25T17:26:05;16.00;99.90
8862;DHT22;4799;50.996;4.754;2022-09-25T17:28:35;15.90;99.90
8862;DHT22;4799;50.996;4.754;2022-09-25T17:31:01;15.90;99.90
8862;DHT22;4799;50.996;4.754;2022-09-25T17:33:27;15.80;99.90
8862;DHT22;4799;50.996;4.754;2022-09-25T17:36:05;15.80;99.90
8862;DHT22;4799;50.996;4.754;2022-09-25T17:38:32;15.70;99.90
8862;DHT22;4799;50.996;4.754;2022-09-25T17:41:00;15.70;99.90
8862;DHT22;4799;50.996;4.754;2022-09-25T17:43:26;15.60;99.90
8862;DHT22;4799;50.996;4.754;2022-09-25T17:45:54;15.60;99.90
8862;DHT22;4799;50.996;4.754;2022-09-25T17:48:25;15.50;99.90
8862;DHT22;4799;50.996;4.754;2022-09-25T17:51:16;15.50;99.90
8862;DHT22;4799;50.996;4.754;2022-09-25T17:53:42;15.40;99.90
8862;DHT22;4799;50.996;4.754;2022-09-25T17:56:09;15.40;99.90
8862;DHT22;4799;50.996;4.754;2022-09-25T17:58:35;15.30;99.90
8862;DHT22;4799;50.996;4.754;2022-09-25T18:01:02;15.30;99.90
8862;DHT22;4799;50.996;4.754;2022-09-25T18:03:31;15.20;99.90
8862;DHT22;4799;50.996;4.754;2022-09-25T18:05:57;15.10;99.90
8862;DHT22;4799;50.996;4.754;2022-09-25T18:08:23;15.10;99.90
8862;DHT22;4799;50.996;4.754;2022-09-25T18:10:52;15.00;99.90
8862;DHT22;4799;50.996;4.754;2022-09-25T18:13:18;14.90;99.90
8862;DHT22;4799;50.996;4.754;2022-09-25T18:15:57;14.80;99.90
8862;DHT22;4799;50.996;4.754;2022-09-25T18:18:25;14.60;99.90
8862;DHT22;4799;50.996;4.754;2022-09-25T18:21:11;14.50;99.90
8862;DHT22;4799;50.996;4.754;2022-09-25T18:23:55;14.40;99.90
8862;DHT22;4799;50.996;4.754;2022-09-25T18:26:20;14.40;99.90
8862;DHT22;4799;50.996;4.754;2022-09-25T18:28:46;14.20;99.90
8862;DHT22;4799;50.996;4.754;2022-09-25T18:31:12;14.10;99.90
8862;DHT22;4799;50.996;4.754;2022-09-25T18:33:38;14.00;99.90
8862;DHT22;4799;50.996;4.754;2022-09-25T18:36:04;14.00;99.90
8862;DHT22;4799;50.996;4.754;2022-09-25T18:38:30;13.90;99.90
8862;DHT22;4799;50.996;4.754;2022-09-25T18:41:00;13.80;99.90
8862;DHT22;4799;50.996;4.754;2022-09-25T18:43:27;13.80;99.90
8862;DHT22;4799;50.996;4.754;2022-09-25T18:45:52;13.70;99.90
8862;DHT22;4799;50.996;4.754;2022-09-25T18:48:18;13.60;99.90
8862;DHT22;4799;50.996;4.754;2022-09-25T18:50:45;13.60;99.90
8862;DHT22;4799;50.996;4.754;2022-09-25T18:53:12;13.50;99.90
8862;DHT22;4799;50.996;4.754;2022-09-25T18:55:38;13.40;99.90
8862;DHT22;4799;50.996;4.754;2022-09-25T18:58:04;13.40;99.90
8862;DHT22;4799;50.996;4.754;2022-09-25T19:00:30;13.40;99.90
8862;DHT22;4799;50.996;4.754;2022-09-25T19:02:56;13.40;99.90
8862;DHT22;4799;50.996;4.754;2022-09-25T19:05:23;13.30;99.90
8862;DHT22;4799;50.996;4.754;2022-09-25T19:07:50;13.40;99.90
8862;DHT22;4799;50.996;4.754;2022-09-25T19:10:20;13.40;99.90
8862;DHT22;4799;50.996;4.754;2022-09-25T19:12:46;13.30;99.90
8862;DHT22;4799;50.996;4.754;2022-09-25T19:15:12;13.40;99.90
8862;DHT22;4799;50.996;4.754;2022-09-25T19:17:38;13.40;99.90
8862;DHT22;4799;50.996;4.754;2022-09-25T19:20:05;13.30;99.90
8862;DHT22;4799;50.996;4.754;2022-09-25T19:22:31;13.30;99.90